Terminal Aerodrome Forecast
Issued by NWS Cleveland, OH

Home | Current Version | Previous Version | Graphics & Text | Print | Product List | Glossary On
Versions: 1 2 3 4 5 6 7 8 9 10 11 12 13 14 15 16 17 18 19 20 21 22 23 24 25 26 27 28 29 30 31 32 33 34
000
FTUS41 KCLE 191100
TAFCLE
TAF
KCLE 191121Z 1912/2018 00000KT P6SM SCT250
     FM191300 17005KT P6SM SCT250
     FM192000 34006KT P6SM BKN035
      TEMPO 1921/2001 3SM TSRA OVC025CB
     FM200100 15006KT 6SM -TSRA SCT035CB OVC050
     FM200700 15006KT 4SM BR OVC050
     FM201500 20007KT 5SM HZ OVC050=

USA.gov is the U.S. government's official web portal to all federal, state and local government web resources and services.